Time;durP1;ratioP1;P1;durP2;ratioP2;P2;SDS_P1;SDS_P2;PMS_P1;PMS_P2;Temp;Humidity;BMP_temperature;BMP_pressure;BME280_temperature;BME280_humidity;BME280_pressure;Samples;Min_cycle;Max_cycle;Signal;HPM_P1;HPM_P2
2021/11/08 00:01:14;;;;;;;22.17;3.78;;;29.30;44.20;;;;;;5099612;28;20112;-62
2021/11/08 00:03:45;;;;;;;14.82;3.30;;;29.20;43.00;;;;;;5081296;28;20068;-62
2021/11/08 00:06:13;;;;;;;12.55;2.85;;;29.20;43.10;;;;;;5098940;28;20907;-61
2021/11/08 00:08:41;;;;;;;12.32;3.60;;;29.10;43.10;;;;;;5098355;28;20068;-62
2021/11/08 00:11:07;;;;;;;17.15;3.58;;;29.10;43.10;;;;;;5098095;28;20088;-61
2021/11/08 00:13:37;;;;;;;10.23;3.42;;;29.10;42.60;;;;;;5097308;28;20087;-61
2021/11/08 00:18:41;;;;;;;13.50;3.85;;;28.90;42.00;;;;;;5097862;28;20100;-63
2021/11/08 00:21:08;;;;;;;9.45;3.50;;;28.90;42.00;;;;;;5097154;28;20091;-60
2021/11/08 00:23:35;;;;;;;12.02;3.42;;;28.80;42.10;;;;;;5097282;28;20151;-61
2021/11/08 00:26:02;;;;;;;8.55;4.05;;;28.70;41.40;;;;;;5097406;28;20065;-60
2021/11/08 00:28:29;;;;;;;16.83;3.80;;;28.60;42.30;;;;;;5097140;28;20068;-62
2021/11/08 00:30:56;;;;;;;12.00;3.70;;;28.50;42.60;;;;;;5097965;28;20068;-61
2021/11/08 00:33:24;;;;;;;17.25;4.10;;;28.40;42.20;;;;;;5098989;28;20098;-62
2021/11/08 00:35:54;;;;;;;17.70;6.05;;;28.40;42.30;;;;;;5080579;28;20087;-62
2021/11/08 00:38:21;;;;;;;16.63;5.38;;;28.30;42.20;;;;;;5080332;28;20065;-62
2021/11/08 00:40:49;;;;;;;17.05;5.57;;;28.10;43.50;;;;;;5098573;28;20076;-62
2021/11/08 00:43:16;;;;;;;21.52;5.18;;;28.00;45.00;;;;;;5097758;28;20076;-61
2021/11/08 00:45:43;;;;;;;22.95;5.68;;;28.00;45.50;;;;;;5096523;28;20079;-60
2021/11/08 00:48:09;;;;;;;16.85;4.80;;;27.90;45.90;;;;;;5095897;28;20465;-62
2021/11/08 00:50:37;;;;;;;18.73;5.28;;;27.80;46.30;;;;;;5095996;28;20084;-63
2021/11/08 00:53:05;;;;;;;23.98;4.40;;;27.70;46.70;;;;;;5080203;28;20124;-60
2021/11/08 00:55:32;;;;;;;23.92;5.03;;;27.60;46.70;;;;;;5096325;28;20184;-60
2021/11/08 00:58:01;;;;;;;19.70;4.80;;;27.50;46.80;;;;;;5114056;22;20064;-59
2021/11/08 01:00:30;;;;;;;20.63;4.85;;;27.50;46.90;;;;;;5059298;28;20084;-61
2021/11/08 01:03:00;;;;;;;24.25;6.30;;;27.40;47.40;;;;;;5060017;28;20085;-62
2021/11/08 01:05:26;;;;;;;30.20;11.75;;;27.30;47.60;;;;;;5059131;28;20069;-60
2021/11/08 01:07:53;;;;;;;42.50;11.93;;;27.20;46.40;;;;;;5058472;28;20073;-62
2021/11/08 01:10:20;;;;;;;29.48;11.90;;;27.10;46.50;;;;;;5043147;28;20492;-62
2021/11/08 01:12:48;;;;;;;33.63;13.13;;;27.10;46.30;;;;;;5059511;28;20143;-60
2021/11/08 01:15:15;;;;;;;33.35;15.90;;;27.00;46.30;;;;;;5057937;28;20085;-61
2021/11/08 01:17:43;;;;;;;35.00;15.02;;;27.00;46.00;;;;;;5058002;28;20080;-61
2021/11/08 01:20:11;;;;;;;34.72;12.98;;;26.80;45.80;;;;;;5076523;28;20124;-62
2021/11/08 01:22:39;;;;;;;33.33;13.38;;;26.70;46.20;;;;;;5058667;28;20087;-61
2021/11/08 01:25:08;;;;;;;36.92;14.00;;;26.70;46.10;;;;;;5058332;28;20213;-61
2021/11/08 01:27:40;;;;;;;37.92;14.93;;;26.60;46.40;;;;;;5057885;28;20150;-60
2021/11/08 01:30:19;;;;;;;30.10;13.60;;;26.50;46.90;;;;;;5058231;28;20077;-57
2021/11/08 01:33:01;;;;;;;21.40;9.82;;;26.40;46.90;;;;;;5058201;28;20072;-61
2021/11/08 01:35:34;;;;;;;32.63;9.70;;;26.40;47.00;;;;;;5076240;28;20073;-63
2021/11/08 01:38:13;;;;;;;32.10;11.38;;;26.30;47.30;;;;;;5058090;28;20076;-63
2021/11/08 01:40:41;;;;;;;30.67;14.20;;;26.20;47.90;;;;;;5043051;28;21058;-61
2021/11/08 01:43:11;;;;;;;30.25;13.85;;;26.10;48.20;;;;;;5059364;28;20100;-61
2021/11/08 01:45:39;;;;;;;34.67;16.75;;;26.00;48.80;;;;;;5076441;28;20073;-62
2021/11/08 01:48:07;;;;;;;40.75;18.23;;;25.90;48.70;;;;;;5041328;28;20101;-62
2021/11/08 01:50:35;;;;;;;37.40;17.58;;;25.90;75.10;;;;;;5051308;28;20507;-62
2021/11/08 01:53:03;;;;;;;41.00;15.40;;;25.60;88.20;;;;;;5094969;28;20160;-62
2021/11/08 01:55:30;;;;;;;34.58;13.98;;;26.10;62.60;;;;;;5077001;28;20087;-61
2021/11/08 01:57:58;;;;;;;27.85;11.88;;;25.60;91.00;;;;;;5076330;28;20548;-62
2021/11/08 02:00:26;;;;;;;39.72;11.85;;;25.30;73.30;;;;;;5076740;28;20073;-58
2021/11/08 02:02:53;;;;;;;37.58;11.68;;;24.90;84.30;;;;;;5076034;28;20112;-60
2021/11/08 02:05:20;;;;;;;36.35;12.20;;;25.10;72.90;;;;;;5076523;28;20134;-61
2021/11/08 02:07:48;;;;;;;37.20;12.25;;;25.20;93.50;;;;;;5074887;28;20096;-60
2021/11/08 02:10:16;;;;;;;37.58;13.57;;;25.00;85.00;;;;;;5074308;28;20100;-61
2021/11/08 02:12:44;;;;;;;31.23;12.13;;;24.70;53.40;;;;;;5076597;28;20100;-61
2021/11/08 02:15:17;;;;;;;34.58;12.75;;;24.90;54.00;;;;;;5056861;28;20476;-60
2021/11/08 02:17:46;;;;;;;29.33;12.95;;;25.00;58.30;;;;;;5075019;28;20602;-60
2021/11/08 02:20:16;;;;;;;32.15;12.60;;;25.00;54.30;;;;;;5093818;28;20480;-60
2021/11/08 02:22:44;;;;;;;29.92;11.38;;;24.70;53.60;;;;;;5074796;28;20048;-62
2021/11/08 02:25:11;;;;;;;49.58;12.15;;;24.80;87.70;;;;;;5080176;28;20076;-59
2021/11/08 02:27:42;;;;;;;36.10;12.65;;;24.60;91.00;;;;;;5063413;28;20067;-61
2021/11/08 02:30:10;;;;;;;34.35;11.25;;;24.40;56.70;;;;;;5079953;28;20068;-61
2021/11/08 02:32:39;;;;;;;38.08;11.07;;;24.10;64.20;;;;;;5077183;28;20035;-61
2021/11/08 02:35:09;;;;;;;46.25;13.10;;;24.40;79.30;;;;;;5098553;28;20031;-61
2021/11/08 02:37:36;;;;;;;39.88;12.38;;;;;;;;;;5080168;28;20171;-62
2021/11/08 02:40:03;;;;;;;32.28;12.90;;;23.90;60.10;;;;;;5098548;28;20160;-61
2021/11/08 02:42:30;;;;;;;30.95;13.02;;;24.30;84.30;;;;;;5080916;28;20128;-61
2021/11/08 02:44:57;;;;;;;40.17;12.40;;;23.50;82.30;;;;;;5080250;28;20060;-62
2021/11/08 02:47:24;;;;;;;38.58;12.32;;;23.70;95.00;;;;;;5080216;28;20106;-61
2021/11/08 02:49:53;;;;;;;30.60;11.95;;;24.10;64.60;;;;;;5061667;28;20474;-61
2021/11/08 02:52:24;;;;;;;40.58;13.98;;;23.90;57.50;;;;;;5081050;28;20097;-62
2021/11/08 02:54:52;;;;;;;50.85;11.93;;;23.90;58.50;;;;;;5077946;28;20076;-62
2021/11/08 02:57:22;;;;;;;41.85;10.77;;;23.80;71.20;;;;;;5063180;28;20502;-61
2021/11/08 02:59:49;;;;;;;37.45;11.68;;;23.70;71.30;;;;;;5079882;28;20412;-61
2021/11/08 03:02:17;;;;;;;29.88;10.95;;;23.80;75.40;;;;;;5079638;28;20234;-61
2021/11/08 03:04:47;;;;;;;27.85;9.80;;;23.60;60.20;;;;;;5080307;28;20124;-61
2021/11/08 03:07:16;;;;;;;25.85;10.65;;;23.60;59.60;;;;;;5062968;28;20077;-61
2021/11/08 03:09:48;;;;;;;27.38;10.90;;;23.50;59.80;;;;;;5080158;28;20088;-62
2021/11/08 03:12:18;;;;;;;35.78;11.45;;;23.30;72.10;;;;;;5080301;28;20063;-60
2021/11/08 03:17:36;;;;;;;32.42;12.57;;;23.70;61.70;;;;;;5097185;28;20067;-62
2021/11/08 03:20:06;;;;;;;45.13;13.25;;;23.30;61.40;;;;;;5079517;28;20023;-61
2021/11/08 03:22:34;;;;;;;43.15;13.20;;;23.30;61.50;;;;;;5063021;28;20642;-62
2021/11/08 03:25:15;;;;;;;38.15;13.13;;;23.10;68.30;;;;;;5063017;28;20526;-56
2021/11/08 03:27:54;;;;;;;42.78;13.05;;;23.40;99.50;;;;;;5079053;28;20167;-62
2021/11/08 03:30:25;;;;;;;46.08;14.48;;;23.20;85.50;;;;;;5097523;28;20718;-61
2021/11/08 03:32:55;;;;;;;49.83;15.25;;;23.00;76.40;;;;;;5052713;28;20023;-62
2021/11/08 03:35:24;;;;;;;44.97;14.43;;;;;;;;;;5078749;28;20077;-62
2021/11/08 03:37:51;;;;;;;49.25;16.20;;;;;;;;;;5078241;28;20043;-60
2021/11/08 03:40:24;;;;;;;54.97;16.08;;;23.10;91.30;;;;;;5078390;28;20115;-61
2021/11/08 03:42:55;;;;;;;51.13;16.77;;;;;;;;;;5098248;28;20534;-61
2021/11/08 03:45:24;;;;;;;43.67;15.65;;;23.00;85.20;;;;;;5078949;28;20474;-63
2021/11/08 03:47:51;;;;;;;44.22;16.05;;;22.80;86.20;;;;;;5061784;28;20035;-62
2021/11/08 03:50:18;;;;;;;39.40;16.58;;;;;;;;;;5097018;28;20135;-62
2021/11/08 03:52:45;;;;;;;57.28;22.23;;;;;;;;;;5078924;28;20034;-64
2021/11/08 03:55:12;;;;;;;56.60;21.95;;;;;;;;;;5061312;28;20032;-61
2021/11/08 03:57:39;;;;;;;66.10;23.65;;;;;;;;;;5062297;28;20038;-62
2021/11/08 04:00:08;;;;;;;63.95;24.48;;;22.70;94.70;;;;;;5096506;28;20078;-63
2021/11/08 04:02:34;;;;;;;69.65;25.65;;;22.70;99.90;;;;;;5062181;28;20050;-62
2021/11/08 04:05:01;;;;;;;48.55;26.15;;;24.10;81.00;;;;;;5097207;28;20054;-61
2021/11/08 04:07:29;;;;;;;62.65;30.67;;;23.00;91.30;;;;;;5079079;28;20038;-61
2021/11/08 04:09:56;;;;;;;71.72;32.30;;;22.60;68.40;;;;;;5061445;28;20425;-63
2021/11/08 04:12:24;;;;;;;68.00;32.22;;;22.60;69.50;;;;;;5079368;28;20059;-62
2021/11/08 04:14:51;;;;;;;63.97;27.90;;;22.50;69.70;;;;;;5077477;28;20070;-61
2021/11/08 04:17:19;;;;;;;79.85;31.40;;;22.50;69.50;;;;;;5077514;28;20599;-62
2021/11/08 04:19:46;;;;;;;74.18;32.30;;;22.40;69.90;;;;;;5095981;28;20120;-61
2021/11/08 04:22:12;;;;;;;66.47;30.55;;;22.50;70.60;;;;;;5096723;28;20065;-62
2021/11/08 04:24:42;;;;;;;74.63;30.83;;;22.70;99.30;;;;;;5078738;28;20482;-62
2021/11/08 04:27:10;;;;;;;62.95;29.48;;;22.10;99.90;;;;;;5077822;28;20058;-63
2021/11/08 04:29:37;;;;;;;68.07;27.63;;;;;;;;;;5077116;28;20121;-63
2021/11/08 04:32:04;;;;;;;74.70;27.08;;;22.40;91.50;;;;;;5061617;28;20024;-61
2021/11/08 04:34:52;;;;;;;61.85;24.88;;;;;;;;;;5078300;28;20032;-64
2021/11/08 04:45:22;;;;;;;80.97;26.80;;;;;;;;;;5095521;28;20027;-61
2021/11/08 04:50:43;;;;;;;84.82;27.13;;;;;;;;;;5095855;28;20578;-60
2021/11/08 04:53:22;;;;;;;67.88;25.50;;;22.20;73.20;;;;;;5077738;28;20050;-63
2021/11/08 05:20:55;;;;;;;84.35;27.80;;;22.30;73.90;;;;;;5077453;28;20028;-62
2021/11/08 05:31:02;;;;;;;78.30;28.23;;;;;;;;;;5095900;28;20020;-61
2021/11/08 05:33:28;;;;;;;66.70;27.48;;;;;;;;;;5094299;28;20093;-63
2021/11/08 05:35:55;;;;;;;82.18;30.58;;;;;;;;;;5076732;28;20064;-61
2021/11/08 05:38:21;;;;;;;76.07;29.92;;;21.70;99.90;;;;;;5076865;28;20086;-64
2021/11/08 05:40:48;;;;;;;82.03;30.48;;;21.30;99.90;;;;;;5076477;28;20136;-62
2021/11/08 05:43:15;;;;;;;85.47;28.27;;;;;;;;;;5077519;28;20094;-62
2021/11/08 05:45:41;;;;;;;75.32;27.95;;;;;;;;;;5075913;28;20020;-61
2021/11/08 05:48:08;;;;;;;73.68;25.65;;;21.60;86.30;;;;;;5075853;28;20485;-60
2021/11/08 05:50:38;;;;;;;69.72;25.00;;;21.50;79.20;;;;;;5077406;28;20096;-62
2021/11/08 05:53:10;;;;;;;72.32;25.02;;;21.30;99.90;;;;;;5067519;28;20038;-62
2021/11/08 06:50:06;;;;;;;49.13;14.27;;;21.00;83.00;;;;;;5092009;28;20224;-61
2021/11/08 06:52:34;;;;;;;47.15;14.60;;;20.60;92.20;;;;;;5091004;28;20105;-60
2021/11/08 06:55:04;;;;;;;63.85;15.88;;;21.00;88.40;;;;;;5056786;28;20488;-60
2021/11/08 06:57:32;;;;;;;53.05;15.70;;;;;;;;;;5073134;28;20044;-60
2021/11/08 06:59:59;;;;;;;57.15;16.02;;;21.00;92.20;;;;;;5074643;28;20050;-60
2021/11/08 07:02:26;;;;;;;58.40;19.23;;;20.90;93.20;;;;;;5074890;28;20095;-61
2021/11/08 07:04:54;;;;;;;61.35;21.40;;;20.60;97.40;;;;;;5093237;28;20039;-60
2021/11/08 07:07:21;;;;;;;63.38;22.40;;;20.70;82.80;;;;;;5093657;28;20032;-63
2021/11/08 07:09:47;;;;;;;72.80;24.23;;;;;;;;;;5077345;28;20080;-62
2021/11/08 07:12:15;;;;;;;64.90;24.02;;;;;;;;;;5078590;28;20036;-63
2021/11/08 07:14:41;;;;;;;72.35;20.30;;;;;;;;;;5078564;28;20034;-60
2021/11/08 07:17:08;;;;;;;64.97;18.85;;;;;;;;;;5079174;28;20039;-61
2021/11/08 07:19:35;;;;;;;69.72;18.48;;;;;;;;;;5078396;28;20035;-63
2021/11/08 07:22:02;;;;;;;59.40;16.92;;;;;;;;;;5078202;28;20028;-61
2021/11/08 07:24:28;;;;;;;62.95;16.52;;;21.00;93.00;;;;;;5079249;28;20024;-65
2021/11/08 07:26:55;;;;;;;46.20;15.82;;;20.40;94.70;;;;;;5079310;28;20028;-62
2021/11/08 07:29:22;;;;;;;54.00;15.43;;;20.60;91.00;;;;;;5078969;28;20100;-62
2021/11/08 07:31:49;;;;;;;48.03;16.20;;;;;;;;;;5079677;28;20074;-62
2021/11/08 07:34:17;;;;;;;50.47;16.80;;;;;;;;;;5077591;28;20074;-62
2021/11/08 07:36:44;;;;;;;60.03;17.25;;;;;;;;;;5077535;28;20131;-60
2021/11/08 07:39:10;;;;;;;46.72;15.20;;;;;;;;;;5077726;28;20032;-60
2021/11/08 07:41:37;;;;;;;48.38;16.85;;;20.40;93.50;;;;;;5078038;28;20085;-61
2021/11/08 07:44:04;;;;;;;43.88;15.85;;;;;;;;;;5078244;28;20426;-62
2021/11/08 07:46:30;;;;;;;42.58;15.48;;;20.70;99.20;;;;;;5096490;28;20496;-60
2021/11/08 07:48:57;;;;;;;46.40;15.82;;;20.40;90.70;;;;;;5078228;28;20016;-61
2021/11/08 07:51:24;;;;;;;49.95;16.38;;;20.50;99.30;;;;;;5078181;28;20083;-62
2021/11/08 07:53:50;;;;;;;57.00;16.23;;;;;;;;;;5096196;28;20471;-60
2021/11/08 07:56:17;;;;;;;50.28;15.57;;;20.00;99.90;;;;;;5077907;28;20106;-61
2021/11/08 07:58:44;;;;;;;56.30;15.63;;;;;;;;;;5077260;28;20039;-62
2021/11/08 08:01:11;;;;;;;40.03;13.98;;;20.50;96.50;;;;;;5077501;28;20080;-61
2021/11/08 08:03:38;;;;;;;45.08;14.30;;;;;;;;;;5078026;28;20449;-63
2021/11/08 08:06:05;;;;;;;41.90;12.77;;;;;;;;;;5095415;28;20072;-61
2021/11/08 08:08:32;;;;;;;43.40;12.57;;;;;;;;;;5077815;28;20110;-62
2021/11/08 08:10:59;;;;;;;40.80;12.45;;;20.60;99.90;;;;;;5094417;28;20969;-62
2021/11/08 08:13:28;;;;;;;34.35;11.73;;;20.30;93.60;;;;;;5078030;28;20073;-63
2021/11/08 08:15:59;;;;;;;41.42;11.65;;;20.50;99.50;;;;;;5094129;28;20060;-61
2021/11/08 08:18:30;;;;;;;36.75;11.40;;;20.30;93.80;;;;;;5058789;28;20076;-59
2021/11/08 08:20:57;;;;;;;42.42;12.65;;;20.30;94.40;;;;;;5076471;28;20527;-59
2021/11/08 08:23:23;;;;;;;42.75;12.10;;;20.30;95.00;;;;;;5059448;28;20175;-60
2021/11/08 08:25:51;;;;;;;37.42;11.40;;;20.30;95.40;;;;;;5059364;28;20084;-61
2021/11/08 08:28:17;;;;;;;33.53;11.25;;;21.10;99.90;;;;;;5090579;28;20088;-61
2021/11/08 08:30:44;;;;;;;48.53;13.75;;;20.20;95.30;;;;;;5052110;28;20464;-63
2021/11/08 08:33:11;;;;;;;39.70;13.45;;;20.20;95.90;;;;;;5062309;28;20081;-63
2021/11/08 08:35:40;;;;;;;43.08;13.80;;;20.20;96.30;;;;;;5080613;28;20080;-63
2021/11/08 08:38:14;;;;;;;48.70;14.32;;;20.10;97.10;;;;;;5082900;28;20081;-63
2021/11/08 08:40:41;;;;;;;42.63;13.35;;;20.10;97.40;;;;;;5064502;28;20073;-63
2021/11/08 08:43:09;;;;;;;42.78;13.90;;;20.10;97.90;;;;;;5062803;28;20179;-62
2021/11/08 08:45:36;;;;;;;43.42;13.55;;;20.10;98.00;;;;;;5064466;28;20142;-61
2021/11/08 08:48:05;;;;;;;44.60;13.60;;;20.00;98.60;;;;;;5065384;28;20222;-63
2021/11/08 08:50:31;;;;;;;52.15;13.80;;;20.00;99.10;;;;;;5047316;28;20566;-62
2021/11/08 08:52:58;;;;;;;47.45;15.55;;;20.10;99.60;;;;;;5081911;28;20168;-62
2021/11/08 08:55:25;;;;;;;43.28;14.45;;;20.10;99.90;;;;;;5061779;28;20068;-62
2021/11/08 08:57:53;;;;;;;51.95;13.75;;;20.00;99.90;;;;;;5080210;28;20167;-61
2021/11/08 09:00:22;;;;;;;48.20;14.20;;;19.90;99.90;;;;;;5061690;28;20116;-63
2021/11/08 09:02:54;;;;;;;43.67;13.48;;;20.00;99.90;;;;;;5081426;28;20103;-61
2021/11/08 09:05:22;;;;;;;48.00;14.13;;;19.90;99.90;;;;;;5059864;28;20069;-61
2021/11/08 09:07:49;;;;;;;45.63;14.25;;;20.00;99.90;;;;;;5063371;28;20523;-61
2021/11/08 09:10:16;;;;;;;43.55;13.00;;;19.90;99.90;;;;;;5062268;28;20102;-61
2021/11/08 09:12:43;;;;;;;35.40;12.45;;;19.90;99.90;;;;;;5065805;28;20168;-63
2021/11/08 09:15:10;;;;;;;35.47;13.48;;;19.90;99.90;;;;;;5066085;28;20077;-65
2021/11/08 09:17:37;;;;;;;39.85;13.90;;;19.80;99.90;;;;;;5061884;28;20551;-63
2021/11/08 09:20:05;;;;;;;47.42;13.75;;;19.80;99.90;;;;;;5061579;28;20075;-60
2021/11/08 09:22:31;;;;;;;36.80;12.95;;;19.70;99.90;;;;;;5063020;28;20085;-63
2021/11/08 09:24:58;;;;;;;37.10;13.77;;;19.70;99.90;;;;;;5048135;28;20113;-61
2021/11/08 09:27:24;;;;;;;34.50;13.13;;;19.60;99.90;;;;;;5063784;28;20636;-61
2021/11/08 09:29:51;;;;;;;49.10;17.83;;;19.60;99.90;;;;;;5061659;28;20087;-61
2021/11/08 09:32:17;;;;;;;39.67;16.85;;;19.60;99.90;;;;;;5079674;28;20131;-61
2021/11/08 09:34:48;;;;;;;41.80;16.60;;;19.50;99.90;;;;;;5063808;28;20628;-60
2021/11/08 09:37:18;;;;;;;31.65;14.13;;;19.60;99.90;;;;;;5064298;28;20108;-61
2021/11/08 09:39:46;;;;;;;32.35;14.10;;;19.60;99.90;;;;;;5062567;28;20068;-62
2021/11/08 09:42:16;;;;;;;29.88;13.60;;;19.60;99.90;;;;;;5078695;28;20096;-62
2021/11/08 09:44:44;;;;;;;34.03;14.80;;;19.60;99.90;;;;;;5063008;28;20076;-61
2021/11/08 09:47:11;;;;;;;34.90;17.02;;;19.50;99.90;;;;;;5079786;28;20112;-61
2021/11/08 09:49:42;;;;;;;37.65;17.45;;;19.40;99.90;;;;;;5061414;28;20128;-60
2021/11/08 09:52:11;;;;;;;36.35;16.95;;;19.40;99.90;;;;;;5062473;28;20130;-61
2021/11/08 09:54:40;;;;;;;48.05;22.90;;;19.40;99.90;;;;;;5078670;28;20069;-59
2021/11/08 09:57:08;;;;;;;58.38;24.80;;;19.30;99.90;;;;;;5059970;28;20619;-62
2021/11/08 09:59:35;;;;;;;47.35;22.42;;;19.30;99.90;;;;;;5046680;28;20120;-62
2021/11/08 10:02:02;;;;;;;54.78;24.85;;;19.30;99.90;;;;;;5079717;28;20101;-62
2021/11/08 10:04:29;;;;;;;68.60;27.10;;;19.30;99.90;;;;;;5079590;28;20081;-60
2021/11/08 10:06:56;;;;;;;62.95;25.73;;;19.20;99.90;;;;;;5061055;28;20104;-63
2021/11/08 10:09:22;;;;;;;65.90;27.15;;;19.20;99.90;;;;;;5077005;28;20057;-60
2021/11/08 10:11:50;;;;;;;94.28;27.73;;;19.20;99.90;;;;;;5080387;28;20068;-61
2021/11/08 10:14:18;;;;;;;93.63;27.25;;;19.20;99.90;;;;;;5061944;28;20790;-61
2021/11/08 10:16:47;;;;;;;59.45;25.52;;;19.10;99.90;;;;;;5063554;28;20107;-60
2021/11/08 10:19:21;;;;;;;59.50;25.17;;;19.20;99.90;;;;;;5063118;28;20101;-60
2021/11/08 10:21:51;;;;;;;54.88;23.23;;;19.30;99.90;;;;;;5082152;28;20542;-60
2021/11/08 10:24:24;;;;;;;57.80;25.60;;;19.20;99.90;;;;;;5060961;28;20133;-61
2021/11/08 10:26:54;;;;;;;62.30;26.10;;;19.30;99.90;;;;;;5061539;28;20080;-61
2021/11/08 10:29:23;;;;;;;74.78;25.00;;;19.30;99.90;;;;;;5062384;28;20084;-63
2021/11/08 10:31:55;;;;;;;69.68;25.92;;;19.40;99.90;;;;;;5061382;28;20083;-62
2021/11/08 10:34:23;;;;;;;53.75;25.65;;;19.40;99.90;;;;;;5060566;28;20092;-62
2021/11/08 10:37:26;;;;;;;62.75;27.88;;;19.30;99.90;;;;;;5061859;28;20073;-62
2021/11/08 10:39:54;;;;;;;66.60;27.77;;;19.30;99.90;;;;;;5053154;28;20076;-61
2021/11/08 10:42:27;;;;;;;64.50;29.17;;;19.30;99.90;;;;;;5062474;28;20093;-62
2021/11/08 10:44:55;;;;;;;60.20;29.02;;;19.30;99.90;;;;;;5065247;28;20073;-60
2021/11/08 10:47:21;;;;;;;72.80;33.15;;;19.40;99.90;;;;;;5083767;28;20064;-63
2021/11/08 10:49:49;;;;;;;132.93;35.28;;;19.40;99.90;;;;;;5064846;28;20116;-61
2021/11/08 10:52:18;;;;;;;75.63;30.70;;;19.40;99.90;;;;;;5050628;28;20073;-61
2021/11/08 10:54:54;;;;;;;44.95;22.00;;;19.30;99.90;;;;;;5066461;28;20695;-61
2021/11/08 10:57:23;;;;;;;34.47;19.75;;;19.20;99.90;;;;;;5063673;28;20430;-60
2021/11/08 10:59:52;;;;;;;62.97;26.45;;;19.20;99.90;;;;;;5083128;28;20166;-62
2021/11/08 11:02:27;;;;;;;30.05;19.45;;;19.10;99.90;;;;;;5084538;28;20568;-62
2021/11/08 11:04:58;;;;;;;63.50;25.50;;;19.10;99.90;;;;;;5083060;28;20077;-61
2021/11/08 11:07:29;;;;;;;77.38;23.88;;;19.00;99.90;;;;;;5084846;28;20151;-58
2021/11/08 11:10:14;;;;;;;31.30;20.48;;;19.00;99.90;;;;;;5065478;28;20541;-60
2021/11/08 11:12:45;;;;;;;181.27;25.02;;;19.10;99.90;;;;;;5064743;28;20104;-62
2021/11/08 11:15:15;;;;;;;36.65;21.45;;;19.40;99.90;;;;;;5065833;28;20080;-61
2021/11/08 11:17:45;;;;;;;310.30;23.23;;;19.00;99.90;;;;;;5066238;28;20031;-59
2021/11/08 11:20:21;;;;;;;221.07;20.15;;;19.00;99.90;;;;;;5066432;28;20080;-60
2021/11/08 11:23:10;;;;;;;358.05;26.48;;;18.80;99.90;;;;;;5066256;28;20234;-63
2021/11/08 11:25:43;;;;;;;381.60;31.67;;;18.70;99.90;;;;;;5065902;28;20488;-63
2021/11/08 11:28:11;;;;;;;94.45;21.90;;;18.70;99.90;;;;;;5066986;28;20522;-62
2021/11/08 11:30:44;;;;;;;41.33;19.95;;;18.60;99.90;;;;;;5080781;28;20168;-63
2021/11/08 11:33:20;;;;;;;126.20;20.75;;;18.50;99.90;;;;;;5065597;28;20115;-62
2021/11/08 11:36:01;;;;;;;66.00;21.83;;;18.50;99.90;;;;;;5062770;28;20083;-61
2021/11/08 11:38:34;;;;;;;61.70;25.25;;;18.60;99.90;;;;;;5049232;28;20080;-60
2021/11/08 11:41:06;;;;;;;39.00;20.35;;;18.60;99.90;;;;;;5064177;28;20092;-62
2021/11/08 11:43:46;;;;;;;49.90;23.92;;;18.60;99.90;;;;;;5044795;28;20126;-61
2021/11/08 11:46:16;;;;;;;182.05;27.48;;;17.90;99.90;;;;;;5062677;28;20453;-62
2021/11/08 11:48:43;;;;;;;132.90;27.45;;;18.50;99.90;;;;;;5063885;28;20076;-61
2021/11/08 11:51:18;;;;;;;49.75;22.98;;;;;;;;;;5048211;28;20028;-60
2021/11/08 11:53:45;;;;;;;118.00;29.23;;;18.60;99.90;;;;;;5085636;28;20529;-60
2021/11/08 11:56:16;;;;;;;119.35;34.13;;;18.50;99.90;;;;;;5061063;28;20522;-60
2021/11/08 11:58:48;;;;;;;123.20;41.78;;;18.40;99.90;;;;;;5046085;28;20104;-64
2021/11/08 12:01:17;;;;;;;166.10;49.35;;;18.40;99.90;;;;;;5064645;28;20191;-61
2021/11/08 12:03:45;;;;;;;108.85;46.47;;;18.30;99.90;;;;;;5066881;28;20111;-59
2021/11/08 12:06:14;;;;;;;103.90;40.83;;;19.30;99.90;;;;;;5065054;28;21449;-61
2021/11/08 12:08:42;;;;;;;91.22;36.67;;;18.30;99.90;;;;;;5050977;28;20119;-60
2021/11/08 12:11:10;;;;;;;156.88;41.90;;;18.30;99.90;;;;;;5080900;28;20547;-59
2021/11/08 12:13:43;;;;;;;56.67;30.55;;;18.30;99.90;;;;;;5067418;28;20077;-58
2021/11/08 12:16:26;;;;;;;141.75;39.10;;;18.40;99.90;;;;;;5065001;28;20080;-60
2021/11/08 12:18:54;;;;;;;206.50;45.70;;;17.80;99.90;;;;;;5063195;28;20084;-59
2021/11/08 12:21:27;;;;;;;71.75;37.20;;;18.10;99.90;;;;;;5066894;28;20073;-62
2021/11/08 12:23:56;;;;;;;118.80;40.63;;;18.10;99.90;;;;;;5064069;28;20119;-58
2021/11/08 12:26:26;;;;;;;83.32;41.03;;;18.20;99.90;;;;;;5063034;28;20076;-59
2021/11/08 12:29:13;;;;;;;162.20;47.65;;;18.10;99.90;;;;;;5066380;28;20441;-57
2021/11/08 12:31:39;;;;;;;101.75;46.53;;;18.20;99.90;;;;;;5083882;28;20094;-60
2021/11/08 12:34:12;;;;;;;182.07;53.55;;;18.20;99.90;;;;;;5064020;28;20084;-59
2021/11/08 12:36:38;;;;;;;360.45;59.45;;;18.20;99.90;;;;;;5048693;28;20065;-57
2021/11/08 12:39:18;;;;;;;168.80;40.28;;;18.10;99.90;;;;;;5064618;28;20081;-60
2021/11/08 12:41:50;;;;;;;194.68;42.83;;;18.00;99.90;;;;;;5062970;28;20095;-63
2021/11/08 12:44:22;;;;;;;205.57;38.00;;;17.90;99.90;;;;;;5063082;28;20172;-63
2021/11/08 12:46:53;;;;;;;327.13;43.28;;;17.90;99.90;;;;;;5063762;28;20557;-60
2021/11/08 12:49:33;;;;;;;61.30;29.90;;;17.90;99.90;;;;;;5063324;28;20100;-61
2021/11/08 12:52:05;;;;;;;164.88;32.97;;;17.80;99.90;;;;;;5081683;28;20076;-59
2021/11/08 12:55:01;;;;;;;48.63;30.05;;;17.90;99.90;;;;;;5060937;28;20115;-60
2021/11/08 12:57:29;;;;;;;232.65;37.47;;;17.90;99.90;;;;;;5064762;28;20142;-59
2021/11/08 12:59:59;;;;;;;105.60;30.95;;;17.90;99.90;;;;;;5080714;28;20131;-59
2021/11/08 13:02:40;;;;;;;99.65;32.40;;;17.90;99.90;;;;;;5063924;28;20186;-62
2021/11/08 13:05:23;;;;;;;64.00;28.42;;;17.80;99.90;;;;;;5063459;28;20077;-60
2021/11/08 13:07:49;;;;;;;84.80;28.60;;;17.80;99.90;;;;;;5062354;28;20449;-60
2021/11/08 13:10:28;;;;;;;86.32;27.60;;;17.90;99.90;;;;;;5061027;28;20076;-61
2021/11/08 13:12:56;;;;;;;41.90;24.95;;;17.90;99.90;;;;;;5061505;28;20564;-59
2021/11/08 13:15:29;;;;;;;32.45;21.67;;;17.90;99.90;;;;;;5064245;28;20073;-63
2021/11/08 13:18:02;;;;;;;69.43;26.23;;;17.90;99.90;;;;;;5062768;28;20163;-61
2021/11/08 13:20:35;;;;;;;132.10;26.08;;;17.90;99.90;;;;;;5063729;28;20085;-63
2021/11/08 13:23:12;;;;;;;92.60;27.38;;;17.90;99.90;;;;;;5079481;28;20114;-60
2021/11/08 13:25:44;;;;;;;46.38;25.27;;;17.90;99.90;;;;;;5063169;28;20024;-60
2021/11/08 13:28:14;;;;;;;137.27;28.20;;;17.90;99.90;;;;;;5046486;28;20080;-60
2021/11/08 13:30:48;;;;;;;65.50;22.73;;;17.90;99.90;;;;;;5061638;28;20164;-61
2021/11/08 13:33:26;;;;;;;83.75;24.40;;;17.80;99.90;;;;;;5063200;28;20077;-59
2021/11/08 13:35:54;;;;;;;42.97;20.90;;;17.90;99.90;;;;;;5062914;28;20213;-59
2021/11/08 13:38:22;;;;;;;36.00;22.25;;;17.90;99.90;;;;;;5080262;28;20126;-59
2021/11/08 13:40:55;;;;;;;202.90;29.73;;;17.80;99.90;;;;;;5062219;28;20072;-61
2021/11/08 13:43:36;;;;;;;78.10;27.13;;;17.80;99.90;;;;;;5081660;28;20097;-61
2021/11/08 13:46:09;;;;;;;36.50;22.48;;;17.70;99.90;;;;;;5046747;28;20098;-62
2021/11/08 13:48:57;;;;;;;133.80;30.73;;;17.70;99.90;;;;;;5059792;28;20114;-61
2021/11/08 13:51:40;;;;;;;46.17;26.17;;;17.80;99.90;;;;;;5062102;28;20099;-62
2021/11/08 13:54:12;;;;;;;212.52;35.67;;;17.60;99.90;;;;;;5079909;28;20095;-62
2021/11/08 13:56:47;;;;;;;48.42;29.42;;;17.60;99.90;;;;;;5082091;28;20097;-62
2021/11/08 13:59:25;;;;;;;61.00;29.80;;;17.60;99.90;;;;;;5060764;28;20097;-61
2021/11/08 14:02:12;;;;;;;66.40;34.05;;;17.60;99.90;;;;;;5061354;28;20150;-58
2021/11/08 14:04:59;;;;;;;109.95;36.55;;;17.70;99.90;;;;;;5078745;28;20073;-63
2021/11/08 14:07:26;;;;;;;42.45;24.38;;;17.70;99.90;;;;;;5064056;28;20092;-62
2021/11/08 14:09:53;;;;;;;97.32;26.35;;;17.60;99.90;;;;;;5061401;28;20467;-60
2021/11/08 14:12:22;;;;;;;77.30;29.73;;;17.60;99.90;;;;;;5062805;28;20133;-58
2021/11/08 14:14:49;;;;;;;265.77;60.30;;;17.60;99.90;;;;;;5060777;28;20146;-62
2021/11/08 14:17:20;;;;;;;465.95;94.00;;;17.60;99.90;;;;;;5062029;28;20084;-60
2021/11/08 14:19:52;;;;;;;145.07;55.45;;;17.60;99.90;;;;;;5064808;28;20087;-61
2021/11/08 14:22:22;;;;;;;91.85;37.05;;;17.60;99.90;;;;;;5064135;28;20089;-61
2021/11/08 14:24:48;;;;;;;125.55;31.38;;;17.60;99.90;;;;;;5064278;28;20079;-62
2021/11/08 14:27:18;;;;;;;195.25;34.13;;;17.60;99.90;;;;;;5064386;28;20138;-61
2021/11/08 14:29:45;;;;;;;72.65;29.17;;;17.60;99.90;;;;;;5093113;28;20097;-60
2021/11/08 14:32:18;;;;;;;108.22;26.25;;;17.50;99.90;;;;;;5052420;28;20524;-59
2021/11/08 14:34:53;;;;;;;119.32;28.73;;;17.60;99.90;;;;;;5074771;28;20134;-59